createdAt,value
2017-11-26T00:54:26.766Z,75.69
2017-11-26T00:56:54.648Z,76.28
2017-11-26T00:59:23.532Z,75.71
2017-11-26T01:02:17.241Z,74.77
2017-11-26T01:04:47.777Z,75.16
2017-11-26T01:07:16.951Z,74.36
2017-11-26T01:10:04.455Z,75.33
2017-11-26T01:12:33.407Z,74.27
2017-11-26T01:15:01.921Z,75.84
2017-11-26T01:17:32.563Z,76.31
2017-11-26T01:20:10.286Z,74.25
2017-11-26T01:22:46.460Z,73.67
2017-11-26T01:25:14.649Z,73.59
2017-11-26T01:27:54.566Z,73.97
2017-11-26T01:30:31.341Z,73.72
2017-11-26T01:32:59.314Z,74.45
2017-11-26T01:35:28.216Z,74.55
2017-11-26T01:41:17.397Z,74.69
2017-11-26T01:43:45.431Z,74.35
2017-11-26T01:46:14.182Z,74.46
2017-11-26T01:49:07.840Z,74.68
2017-11-26T01:54:45.517Z,75.32
2017-11-26T01:57:13.056Z,75.77
2017-11-26T01:59:43.928Z,75.26
2017-11-26T02:02:12.304Z,74.40
2017-11-26T02:04:40.642Z,74.65
2017-11-26T02:07:08.679Z,74.97
2017-11-26T02:09:37.816Z,74.84
2017-11-26T02:12:05.873Z,75.51
2017-11-26T02:14:37.469Z,75.77
2017-11-26T02:17:09.288Z,75.89
2017-11-26T02:19:37.781Z,74.88
2017-11-26T02:22:05.783Z,74.83
2017-11-26T02:24:34.647Z,73.46
2017-11-26T02:27:02.396Z,73.93
2017-11-26T02:29:30.796Z,73.55
2017-11-26T02:32:10.265Z,74.01
2017-11-26T02:34:51.706Z,74.09
2017-11-26T02:37:19.811Z,73.74
2017-11-26T02:39:49.997Z,71.63
2017-11-26T02:42:17.976Z,72.05
2017-11-26T02:44:47.417Z,71.76
2017-11-26T02:47:15.766Z,71.76
2017-11-26T02:49:43.587Z,69.20
2017-11-26T02:52:11.496Z,69.43
2017-11-26T02:54:45.205Z,68.50
2017-11-26T02:57:15.378Z,68.48
2017-11-26T02:59:49.137Z,69.05
2017-11-26T03:02:17.634Z,69.32
2017-11-26T03:04:46.851Z,68.68
2017-11-26T03:07:16.223Z,68.30
2017-11-26T03:09:48.921Z,68.49
2017-11-26T03:12:20.264Z,68.19
2017-11-26T03:14:51.638Z,67.82
2017-11-26T03:17:20.278Z,67.75
2017-11-26T03:19:54.187Z,68.28
2017-11-26T03:22:25.545Z,67.40
2017-11-26T03:24:58.423Z,68.03
2017-11-26T03:27:30.704Z,68.69
2017-11-26T03:30:00.358Z,68.28
2017-11-26T03:32:33.495Z,67.65
2017-11-26T03:35:04.419Z,68.06
2017-11-26T03:37:33.013Z,67.95
2017-11-26T03:40:08.692Z,68.64
2017-11-26T03:47:52.920Z,68.62
2017-11-26T03:50:22.451Z,68.88
2017-11-26T03:55:31.056Z,69.35
2017-11-26T03:58:10.386Z,69.05
2017-11-26T04:00:42.441Z,69.49
2017-11-26T04:03:11.297Z,69.12
2017-11-26T04:05:39.370Z,69.72
2017-11-26T04:08:12.931Z,69.49
2017-11-26T04:10:42.246Z,69.33
2017-11-26T04:18:19.463Z,69.39
2017-11-26T04:20:49.616Z,69.49
2017-11-26T04:25:52.171Z,70.72
2017-11-26T04:28:20.277Z,70.33
2017-11-26T04:30:48.064Z,70.51
2017-11-26T04:33:16.305Z,70.28
2017-11-26T04:35:47.444Z,70.66
2017-11-26T04:40:53.010Z,69.78
2017-11-26T04:43:29.848Z,70.15
2017-11-26T04:49:59.682Z,70.98
2017-11-26T04:52:27.475Z,70.72
2017-11-26T04:54:58.062Z,70.88
2017-11-26T04:57:26.752Z,70.89
2017-11-26T04:59:54.854Z,70.72
2017-11-26T05:02:32.255Z,70.53
2017-11-26T05:05:01.941Z,70.27
2017-11-26T05:07:30.879Z,70.41
2017-11-26T05:09:59.757Z,70.73
2017-11-26T05:12:27.515Z,71.80
2017-11-26T05:14:57.570Z,70.89
2017-11-26T05:17:26.646Z,71.15
2017-11-26T05:19:54.744Z,71.30
2017-11-26T05:22:30.401Z,72.07
2017-11-26T05:24:58.421Z,71.83
2017-11-26T05:27:26.255Z,72.29
2017-11-26T05:35:59.747Z,71.42
2017-11-26T05:38:30.279Z,71.02
2017-11-26T05:41:01.725Z,70.73
2017-11-26T05:43:30.496Z,70.67
2017-11-26T05:45:58.412Z,70.95
2017-11-26T05:48:28.629Z,71.05
2017-11-26T05:50:56.685Z,72.23
2017-11-26T05:53:26.105Z,71.46
2017-11-26T05:56:01.621Z,71.54
2017-11-26T05:58:29.320Z,72.75
2017-11-26T06:00:57.233Z,72.49
2017-11-26T06:03:26.107Z,72.64
2017-11-26T06:05:55.549Z,71.88
2017-11-26T06:08:23.666Z,71.97
2017-11-26T06:10:54.860Z,72.23
2017-11-26T06:13:24.161Z,72.82
2017-11-26T06:15:55.801Z,73.25
2017-11-26T06:18:24.773Z,73.62
2017-11-26T06:20:54.529Z,74.85
2017-11-26T06:23:23.149Z,74.57
2017-11-26T06:25:51.084Z,74.78
2017-11-26T06:28:19.241Z,74.85
2017-11-26T06:30:47.338Z,75.78
2017-11-26T06:33:16.599Z,75.44
2017-11-26T06:38:35.144Z,74.65
2017-11-26T06:41:07.905Z,74.86
2017-11-26T07:38:50.963Z,75.95
2017-11-26T07:41:18.468Z,71.62
2017-11-26T07:43:46.238Z,71.90
2017-11-26T07:46:13.858Z,71.28
2017-11-26T07:48:41.397Z,71.25
2017-11-26T07:51:09.278Z,69.99
2017-11-26T07:53:42.176Z,70.27
2017-11-26T07:56:09.799Z,69.64
2017-11-26T07:58:37.502Z,69.82
2017-11-26T08:01:05.184Z,65.42
2017-11-26T08:03:32.756Z,67.29
2017-11-26T08:06:00.301Z,67.34
2017-11-26T08:08:27.885Z,66.40
2017-11-26T08:10:55.828Z,64.94
2017-11-26T08:13:26.177Z,66.80
2017-11-26T08:15:53.985Z,68.65
2017-11-26T08:18:22.585Z,68.93
2017-11-26T08:20:50.145Z,68.60
2017-11-26T08:23:18.198Z,68.12
2017-11-26T08:25:46.352Z,69.99
2017-11-26T08:28:13.934Z,69.90
2017-11-26T08:30:41.625Z,69.73
2017-11-26T08:33:14.370Z,69.34
2017-11-26T08:35:42.191Z,69.59
2017-11-26T08:38:13.846Z,69.15
2017-11-26T08:40:42.019Z,69.06
2017-11-26T08:45:48.665Z,68.61
2017-11-26T08:48:21.633Z,67.02
2017-11-26T08:50:55.816Z,65.61
2017-11-26T08:53:24.671Z,67.21
2017-11-26T08:55:53.312Z,67.51
2017-11-26T08:58:21.145Z,67.49
2017-11-26T09:00:48.773Z,67.71
2017-11-26T09:03:21.085Z,68.42
2017-11-26T09:05:49.006Z,68.02
2017-11-26T09:11:31.547Z,67.96
2017-11-26T09:13:59.602Z,68.51
2017-11-26T09:16:27.554Z,69.13
2017-11-26T09:18:55.062Z,70.10
2017-11-26T09:21:22.616Z,70.59
2017-11-26T09:23:50.127Z,70.35
2017-11-26T09:26:17.648Z,71.02
2017-11-26T09:28:45.125Z,70.58
2017-11-26T09:31:14.895Z,71.26
2017-11-26T09:33:42.433Z,71.92
2017-11-26T09:36:09.959Z,71.87
2017-11-26T09:38:37.632Z,70.88
2017-11-26T09:41:05.089Z,70.63
2017-11-26T09:43:32.583Z,70.76
2017-11-26T09:46:00.380Z,70.37
2017-11-26T09:48:27.939Z,71.28
2017-11-26T09:58:14.590Z,70.03
2017-11-26T10:00:42.320Z,69.83
2017-11-26T10:03:09.933Z,68.97
2017-11-26T10:05:37.718Z,70.42
2017-11-26T10:08:05.660Z,67.40
2017-11-26T10:10:33.234Z,68.93
2017-11-26T10:13:00.763Z,67.27
2017-11-26T10:15:28.327Z,67.40
2017-11-26T10:17:55.902Z,66.65
2017-11-26T10:20:23.456Z,67.36
2017-11-26T10:22:50.996Z,67.56
2017-11-26T10:25:19.330Z,67.82
2017-11-26T10:27:46.946Z,68.25
2017-11-26T10:30:14.504Z,68.10
2017-11-26T10:32:42.142Z,68.23
2017-11-26T10:35:09.801Z,66.75
2017-11-26T10:37:39.405Z,66.32
2017-11-26T10:40:06.980Z,67.48
2017-11-26T10:42:34.677Z,68.17
2017-11-26T10:45:03.233Z,67.02
2017-11-26T10:47:30.810Z,67.71
2017-11-26T10:49:58.364Z,67.69
2017-11-26T10:52:26.004Z,67.94
2017-11-26T10:54:53.563Z,68.46
2017-11-26T10:57:21.923Z,66.99
2017-11-26T10:59:49.539Z,67.09
2017-11-26T11:02:17.198Z,67.24
2017-11-26T11:04:44.915Z,67.39
2017-11-26T11:07:12.555Z,66.70
2017-11-26T11:09:40.100Z,67.46
2017-11-26T11:12:07.736Z,68.91
2017-11-26T11:14:35.332Z,68.29
2017-11-26T11:17:02.921Z,68.79
2017-11-26T11:19:30.508Z,67.17
2017-11-26T11:21:58.565Z,67.37
2017-11-26T11:24:26.219Z,67.29
2017-11-26T11:26:53.853Z,66.70
2017-11-26T11:29:21.596Z,66.60
2017-11-26T11:31:49.330Z,65.06
2017-11-26T11:34:16.864Z,61.16
2017-11-26T11:36:44.510Z,60.90
2017-11-26T11:39:12.106Z,61.41
2017-11-26T11:41:39.740Z,63.49
2017-11-26T11:44:07.398Z,68.84
2017-11-26T11:46:35.057Z,72.77
2017-11-26T11:49:02.633Z,75.13
2017-11-26T11:51:31.014Z,78.24
2017-11-26T11:53:58.634Z,79.47
2017-11-26T11:56:26.351Z,78.89
2017-11-26T11:58:53.971Z,77.79
2017-11-26T12:01:22.383Z,76.46
2017-11-26T12:03:49.986Z,76.07
2017-11-26T12:06:17.626Z,75.57
2017-11-26T12:08:45.183Z,73.97
2017-11-26T12:11:13.685Z,73.46
2017-11-26T12:13:41.712Z,72.45
2017-11-26T12:16:09.513Z,71.36
2017-11-26T12:18:38.826Z,71.29
2017-11-26T12:21:06.496Z,71.32
2017-11-26T12:23:34.991Z,70.71
2017-11-26T12:26:02.985Z,70.99
2017-11-26T12:28:30.653Z,71.80
2017-11-26T12:30:58.212Z,71.17
2017-11-26T12:33:25.773Z,70.94
2017-11-26T12:35:53.414Z,67.97
2017-11-26T12:38:21.051Z,68.21
2017-11-26T12:40:48.729Z,68.06
2017-11-26T12:43:16.794Z,68.52
2017-11-26T12:45:45.070Z,67.43
2017-11-26T12:48:13.188Z,67.24
2017-11-26T12:50:40.883Z,66.00
2017-11-26T12:53:08.587Z,67.81
2017-11-26T12:55:36.213Z,66.54
2017-11-26T12:58:03.834Z,64.71
2017-11-26T13:00:31.399Z,63.62
2017-11-26T13:02:59.949Z,65.77
2017-11-26T13:05:27.588Z,65.41
2017-11-26T13:07:55.226Z,65.66
2017-11-26T13:10:22.804Z,64.58
2017-11-26T13:12:50.376Z,62.57
2017-11-26T13:15:17.997Z,65.01
2017-11-26T13:17:46.372Z,63.64
2017-11-26T13:20:13.951Z,64.30
2017-11-26T13:22:41.474Z,63.98
2017-11-26T13:25:09.310Z,62.01
2017-11-26T13:27:37.105Z,60.57
2017-11-26T13:30:05.487Z,63.90
2017-11-26T13:32:33.038Z,61.23
2017-11-26T13:35:00.951Z,63.45
2017-11-26T13:37:30.778Z,61.25
2017-11-26T13:39:58.856Z,61.05
2017-11-26T13:42:26.390Z,59.97
2017-11-26T13:44:54.297Z,61.30
2017-11-26T13:47:22.532Z,61.67
2017-11-26T13:49:50.151Z,61.90
2017-11-26T13:52:18.504Z,60.79
2017-11-26T13:54:46.101Z,59.39
2017-11-26T13:57:14.528Z,59.46
2017-11-26T13:59:42.198Z,61.61
2017-11-26T14:02:09.792Z,59.45
2017-11-26T14:04:37.444Z,63.30
2017-11-26T14:07:05.306Z,63.84
2017-11-26T14:09:33.310Z,63.98
2017-11-26T14:12:01.586Z,63.20
2017-11-26T14:14:29.300Z,62.42
2017-11-26T14:16:56.982Z,64.07
2017-11-26T14:19:24.622Z,62.97
2017-11-26T14:21:52.268Z,60.46
2017-11-26T14:24:20.062Z,62.26
2017-11-26T14:26:47.819Z,61.95
2017-11-26T14:29:15.448Z,62.12
2017-11-26T14:31:43.133Z,61.85
2017-11-26T14:34:10.704Z,61.60
2017-11-26T14:36:38.294Z,62.36
2017-11-26T14:39:06.061Z,64.17
2017-11-26T14:41:33.691Z,64.51
2017-11-26T14:44:01.740Z,64.19
2017-11-26T14:46:29.356Z,63.43
2017-11-26T14:48:57.073Z,62.98
2017-11-26T14:51:24.814Z,63.90
2017-11-26T14:53:52.707Z,62.63
2017-11-26T14:56:20.563Z,62.08
2017-11-26T14:58:49.046Z,63.45
2017-11-26T15:01:16.760Z,62.61
2017-11-26T15:03:44.440Z,64.59
2017-11-26T15:06:12.259Z,64.12
2017-11-26T15:08:39.858Z,64.19
2017-11-26T15:11:07.443Z,64.60
2017-11-26T15:13:35.049Z,64.07
2017-11-26T15:16:03.416Z,64.93
2017-11-26T15:18:30.972Z,64.77
2017-11-26T15:20:58.759Z,65.86
2017-11-26T15:23:26.280Z,66.29
2017-11-26T15:25:54.055Z,66.21
2017-11-26T15:28:21.783Z,65.88
2017-11-26T15:30:49.339Z,65.32
2017-11-26T15:33:17.070Z,65.85
2017-11-26T15:35:45.272Z,66.30
2017-11-26T15:38:13.093Z,66.18
2017-11-26T15:40:40.914Z,66.42
2017-11-26T15:43:10.054Z,65.99
2017-11-26T15:45:38.593Z,66.90
2017-11-26T15:48:11.975Z,66.64
2017-11-26T15:50:40.115Z,66.49
2017-11-26T15:53:09.570Z,65.99
2017-11-26T15:55:38.363Z,65.48
2017-11-26T15:58:08.586Z,66.71
2017-11-26T16:00:37.454Z,66.73
2017-11-26T16:03:05.645Z,66.42
2017-11-26T16:05:43.889Z,66.77
2017-11-26T16:08:12.404Z,66.54
2017-11-26T16:10:39.893Z,64.76
2017-11-26T16:13:08.161Z,64.87
2017-11-26T16:15:36.845Z,65.00
2017-11-26T16:18:06.695Z,65.05
2017-11-26T16:20:34.337Z,65.66
2017-11-26T16:23:02.660Z,66.84
2017-11-26T16:25:30.954Z,67.31
2017-11-26T16:27:58.771Z,67.37
2017-11-26T16:30:26.540Z,67.45
2017-11-26T16:32:54.310Z,67.98
2017-11-26T16:35:22.247Z,68.12
2017-11-26T16:37:52.341Z,68.01
2017-11-26T16:40:21.230Z,68.02
2017-11-26T16:42:49.233Z,68.31
2017-11-26T16:45:18.445Z,68.57
2017-11-26T16:47:48.051Z,68.87
2017-11-26T16:50:16.982Z,69.18
2017-11-26T16:52:48.255Z,68.57
2017-11-26T16:55:16.205Z,69.25
2017-11-26T16:57:44.968Z,69.30
2017-11-26T17:00:13.552Z,69.85
2017-11-26T17:02:41.066Z,69.46
2017-11-26T17:05:09.563Z,69.41
2017-11-26T17:07:37.226Z,69.49
2017-11-26T17:10:06.681Z,69.57
2017-11-26T17:12:34.840Z,69.34
2017-11-26T17:15:04.585Z,69.45
2017-11-26T17:17:33.192Z,70.65
2017-11-26T17:20:03.886Z,71.24
2017-11-26T17:22:32.642Z,71.26
2017-11-26T17:25:01.617Z,70.85
2017-11-26T17:27:29.441Z,70.92
2017-11-26T17:29:57.393Z,70.90
2017-11-26T17:32:25.771Z,70.63
2017-11-26T17:34:55.558Z,71.14
2017-11-26T17:37:23.145Z,71.00
2017-11-26T17:39:51.063Z,70.33
2017-11-26T17:42:19.488Z,70.62
2017-11-26T17:44:47.368Z,70.50
2017-11-26T17:47:15.821Z,71.75
2017-11-26T17:49:43.678Z,70.92
2017-11-26T17:52:12.414Z,70.71
2017-11-26T17:54:40.442Z,70.79
2017-11-26T17:57:08.035Z,71.12
2017-11-26T17:59:36.668Z,71.57
2017-11-26T18:02:04.411Z,71.13
2017-11-26T18:04:32.624Z,71.30
2017-11-26T18:07:00.418Z,71.55
2017-11-26T18:09:31.000Z,72.78
2017-11-26T18:12:01.162Z,73.32
2017-11-26T18:14:28.760Z,73.66
2017-11-26T18:16:57.122Z,73.92
2017-11-26T18:19:24.865Z,74.43
2017-11-26T18:21:55.917Z,74.74
2017-11-26T18:24:23.982Z,75.00
2017-11-26T18:26:53.097Z,75.14
2017-11-26T18:29:25.274Z,75.68
2017-11-26T18:31:53.290Z,76.08
2017-11-26T18:34:21.192Z,75.93
2017-11-26T18:36:51.421Z,76.08
2017-11-26T18:39:18.949Z,76.54
2017-11-26T18:41:47.575Z,76.73
2017-11-26T18:44:15.491Z,76.90
2017-11-26T18:46:44.127Z,76.69
2017-11-26T18:49:12.849Z,76.27
2017-11-26T18:51:40.882Z,75.99
2017-11-26T18:54:09.368Z,75.65
2017-11-26T18:56:37.063Z,76.20
2017-11-26T18:59:05.983Z,75.87
2017-11-26T19:01:36.544Z,76.29
2017-11-26T19:04:04.341Z,75.83
2017-11-26T19:06:32.473Z,75.92
2017-11-26T19:09:01.012Z,76.24
2017-11-26T19:11:28.873Z,76.23
2017-11-26T19:13:56.834Z,76.42
2017-11-26T19:16:24.788Z,76.76
2017-11-26T19:18:52.731Z,76.17
2017-11-26T19:21:22.059Z,75.92
2017-11-26T19:23:50.163Z,75.40
2017-11-26T19:26:19.336Z,75.87
2017-11-26T19:28:47.230Z,76.21
2017-11-26T19:31:15.181Z,75.60
2017-11-26T19:33:45.041Z,75.53
2017-11-26T19:36:12.840Z,75.63
2017-11-26T19:38:41.508Z,75.77
2017-11-26T19:41:09.942Z,75.56
2017-11-26T19:43:37.673Z,75.67
2017-11-26T19:46:06.580Z,75.82
2017-11-26T19:48:34.365Z,75.65
2017-11-26T19:51:02.808Z,76.25
2017-11-26T19:53:30.673Z,76.17
2017-11-26T19:55:59.383Z,76.21
2017-11-26T19:58:27.155Z,75.77
2017-11-26T20:00:54.884Z,75.61
2017-11-26T20:03:22.873Z,75.47
2017-11-26T20:05:50.823Z,75.16
2017-11-26T20:08:19.693Z,75.16
2017-11-26T20:10:47.891Z,76.11
2017-11-26T20:13:17.523Z,74.75
2017-11-26T20:15:48.383Z,74.98
2017-11-26T20:18:16.595Z,75.20
2017-11-26T20:20:46.856Z,74.44
2017-11-26T20:23:14.775Z,73.88
2017-11-26T20:25:43.989Z,73.91
2017-11-26T20:28:11.814Z,73.98
2017-11-26T20:30:40.323Z,73.42
2017-11-26T20:33:08.426Z,73.26
2017-11-26T20:35:36.579Z,73.98
2017-11-26T20:38:04.480Z,73.96
2017-11-26T20:40:33.916Z,73.98
2017-11-26T20:43:01.810Z,73.79
2017-11-26T20:45:30.091Z,74.02
2017-11-26T20:47:59.968Z,73.76
2017-11-26T20:50:28.712Z,72.96
2017-11-26T20:52:58.890Z,72.92
2017-11-26T20:55:27.309Z,73.05
2017-11-26T20:57:55.758Z,72.45
2017-11-26T21:00:26.838Z,72.47
2017-11-26T21:02:54.706Z,72.63
2017-11-26T21:05:23.611Z,72.90
2017-11-26T21:07:52.263Z,72.80
2017-11-26T21:10:20.690Z,73.19
2017-11-26T21:12:49.253Z,71.99
2017-11-26T21:15:17.648Z,71.90
2017-11-26T21:17:45.606Z,71.75
2017-11-26T21:20:15.618Z,72.19
2017-11-26T21:22:44.865Z,72.31
2017-11-26T21:25:13.881Z,73.93
2017-11-26T21:27:42.945Z,74.61
2017-11-26T21:30:13.027Z,74.70
2017-11-26T21:32:41.101Z,75.24
2017-11-26T21:35:09.479Z,74.64
2017-11-26T21:37:38.657Z,74.65
2017-11-26T21:40:11.081Z,74.14
2017-11-26T21:45:43.587Z,74.38
2017-11-26T21:48:19.954Z,75.36
2017-11-26T21:50:49.987Z,75.93
2017-11-26T21:53:22.371Z,76.01
2017-11-26T21:55:52.814Z,75.78
2017-11-26T21:58:22.481Z,75.61
2017-11-26T22:00:51.643Z,75.80
2017-11-26T22:03:25.349Z,76.22
2017-11-26T22:05:57.377Z,76.93
2017-11-26T22:08:25.830Z,76.58
2017-11-26T22:10:57.518Z,76.32
2017-11-26T22:13:26.071Z,76.22
2017-11-26T22:15:55.627Z,76.14
2017-11-26T22:18:29.418Z,76.28
2017-11-26T22:20:59.243Z,76.45
2017-11-26T22:23:30.041Z,76.45
2017-11-26T22:26:04.318Z,76.67
2017-11-26T22:28:37.745Z,75.96
2017-11-26T22:31:13.626Z,75.75
2017-11-26T22:33:47.572Z,76.01
2017-11-26T22:36:24.096Z,77.01
2017-11-26T22:39:12.762Z,77.07
2017-11-26T22:41:51.164Z,76.22
2017-11-26T22:47:22.628Z,76.00
2017-11-26T22:49:53.236Z,76.08
2017-11-26T22:52:24.161Z,76.92
2017-11-26T23:34:02.429Z,79.74
2017-11-26T23:36:36.973Z,79.65
2017-11-26T23:39:11.590Z,79.37
2017-11-26T23:41:41.669Z,79.01
2017-11-26T23:44:14.699Z,79.36
2017-11-26T23:46:43.987Z,78.40
2017-11-26T23:49:18.617Z,78.02
2017-11-26T23:51:50.464Z,77.97
2017-11-26T23:54:21.811Z,77.89
2017-11-26T23:56:58.753Z,78.38
2017-11-26T23:59:28.985Z,77.91
